Time;durP1;ratioP1;P1;durP2;ratioP2;P2;SDS_P1;SDS_P2;PMS_P1;PMS_P2;Temp;Humidity;BMP_temperature;BMP_pressure;BME280_temperature;BME280_humidity;BME280_pressure;Samples;Min_cycle;Max_cycle;Signal;HPM_P1;HPM_P2
2022/05/05 00:00:42;;;;;;;7.80;6.23;;;;;;;10.85;96.08;98859.47;4994935;28;20190;-51
2022/05/05 00:03:10;;;;;;;10.03;6.50;;;;;;;10.87;96.65;98860.13;4992912;28;20673;-50
2022/05/05 00:05:36;;;;;;;9.67;6.40;;;;;;;10.86;96.55;98861.94;4992501;28;20206;-52
2022/05/05 00:08:04;;;;;;;7.77;6.00;;;;;;;10.85;96.81;98854.22;4974967;28;20202;-50
2022/05/05 00:16:19;;;;;;;7.13;5.47;;;;;;;10.74;97.54;98852.66;4992557;28;20197;-51
2022/05/05 00:18:46;;;;;;;7.70;6.10;;;;;;;10.69;97.25;98854.88;4992394;28;20213;-50
2022/05/05 00:21:13;;;;;;;8.30;5.33;;;;;;;10.59;96.84;98858.38;4992357;28;20188;-52
2022/05/05 00:23:40;;;;;;;7.73;6.40;;;;;;;10.54;97.61;98851.94;4985846;28;20264;-51
2022/05/05 00:26:08;;;;;;;6.83;6.13;;;;;;;10.49;97.97;98857.59;4974771;28;20213;-52
2022/05/05 00:28:35;;;;;;;6.57;5.33;;;;;;;10.42;98.01;98851.31;4992779;28;20193;-50
2022/05/05 00:31:02;;;;;;;7.30;6.60;;;;;;;10.38;98.49;98847.31;4976860;28;20217;-51
2022/05/05 00:33:30;;;;;;;7.63;6.13;;;;;;;10.30;98.31;98845.44;4976809;28;20198;-51
2022/05/05 00:35:57;;;;;;;6.87;6.10;;;;;;;10.26;98.03;98839.66;5009928;28;20208;-52
2022/05/05 00:38:25;;;;;;;7.23;6.27;;;;;;;10.26;98.10;98844.88;5011565;28;20640;-52
2022/05/05 00:40:52;;;;;;;9.43;6.90;;;;;;;10.22;100.00;98843.50;5009938;28;20184;-51
2022/05/05 00:43:20;;;;;;;8.83;6.90;;;;;;;10.17;99.42;98848.34;5012595;28;20195;-51
2022/05/05 00:45:48;;;;;;;8.27;6.83;;;;;;;10.11;98.64;98841.91;5011967;28;20200;-51
2022/05/05 00:48:14;;;;;;;7.73;6.93;;;;;;;10.03;98.60;98847.03;5012107;28;20216;-51
2022/05/05 00:51:00;;;;;;;8.30;7.03;;;;;;;9.97;98.90;98848.41;5012631;28;20261;-51
2022/05/05 00:53:27;;;;;;;9.50;6.90;;;;;;;9.96;99.96;98846.78;5012227;28;20203;-51
2022/05/05 00:55:57;;;;;;;9.67;7.37;;;;;;;9.97;100.00;98850.19;5011935;28;20218;-51
2022/05/05 00:58:26;;;;;;;8.80;6.90;;;;;;;9.95;100.00;98850.34;4994569;28;20197;-50
2022/05/05 01:00:54;;;;;;;10.13;7.00;;;;;;;9.95;100.00;98841.69;5012122;28;20192;-51
2022/05/05 01:03:24;;;;;;;9.17;7.10;;;;;;;9.96;100.00;98845.94;5012131;28;20271;-50
2022/05/05 01:05:50;;;;;;;8.93;6.63;;;;;;;9.98;100.00;98852.69;5011655;28;20205;-51
2022/05/05 01:08:18;;;;;;;8.53;6.40;;;;;;;10.04;100.00;98849.50;5011988;28;20271;-51
2022/05/05 01:10:45;;;;;;;7.80;7.00;;;;;;;10.14;100.00;98843.41;5012219;28;20239;-50
2022/05/05 01:13:12;;;;;;;10.50;6.40;;;;;;;10.22;99.94;98851.34;5012324;28;20414;-50
2022/05/05 01:15:41;;;;;;;7.57;6.70;;;;;;;10.23;99.51;98857.41;5011779;28;20573;-50
2022/05/05 01:18:08;;;;;;;7.70;6.80;;;;;;;10.29;99.91;98843.78;4994416;28;20204;-50
2022/05/05 01:20:44;;;;;;;9.00;7.00;;;;;;;10.26;100.00;98852.69;5012171;28;20234;-50
2022/05/05 01:23:12;;;;;;;8.23;6.53;;;;;;;10.27;100.00;98856.94;5012155;28;20185;-52
2022/05/05 01:28:24;;;;;;;9.00;6.73;;;;;;;10.28;100.00;98860.41;5011943;28;20187;-50
2022/05/05 01:30:52;;;;;;;9.00;6.43;;;;;;;10.33;100.00;98855.56;4994105;28;20214;-50
2022/05/05 01:33:21;;;;;;;11.13;7.53;;;;;;;10.36;100.00;98860.50;5011991;28;20180;-51
2022/05/05 01:38:40;;;;;;;7.60;6.70;;;;;;;10.36;100.00;98859.66;5011919;28;20679;-51
2022/05/05 01:41:09;;;;;;;9.27;6.47;;;;;;;10.30;100.00;98856.66;5011755;28;20216;-51
2022/05/05 01:43:54;;;;;;;8.23;6.63;;;;;;;10.29;100.00;98855.03;5012141;28;20715;-51
2022/05/05 01:46:22;;;;;;;11.47;7.00;;;;;;;10.27;100.00;98853.53;5016702;28;20193;-51
2022/05/05 01:48:48;;;;;;;11.80;6.90;;;;;;;10.29;100.00;98851.59;5021556;28;20189;-51
2022/05/05 01:51:15;;;;;;;9.30;6.83;;;;;;;10.26;100.00;98844.88;5024222;28;20763;-51
2022/05/05 01:53:44;;;;;;;8.43;6.87;;;;;;;10.21;100.00;98854.91;5010595;28;20271;-51
2022/05/05 01:56:13;;;;;;;9.90;6.93;;;;;;;10.19;100.00;98855.06;5010678;28;20695;-53
2022/05/05 01:58:41;;;;;;;9.53;7.03;;;;;;;10.14;100.00;98852.06;5012684;28;20196;-52
2022/05/05 02:01:09;;;;;;;8.73;6.70;;;;;;;10.11;100.00;98856.72;4996937;28;20197;-51
2022/05/05 02:03:37;;;;;;;9.90;7.10;;;;;;;10.08;100.00;98855.25;5014224;28;20399;-53
2022/05/05 02:06:05;;;;;;;8.37;7.37;;;;;;;10.04;100.00;98854.72;4996565;28;20290;-52
2022/05/05 02:08:33;;;;;;;7.67;6.73;;;;;;;10.06;100.00;98856.38;5014202;28;20192;-51
2022/05/05 02:11:02;;;;;;;7.53;6.53;;;;;;;9.99;100.00;98851.72;5014296;28;20203;-51
2022/05/05 02:13:29;;;;;;;8.43;6.90;;;;;;;9.87;100.00;98840.59;5014443;28;20251;-53
2022/05/05 02:15:57;;;;;;;8.27;7.27;;;;;;;9.81;100.00;98843.78;4996517;28;20465;-51
2022/05/05 02:18:23;;;;;;;8.60;7.17;;;;;;;9.79;100.00;98837.88;4996829;28;20212;-51
2022/05/05 02:20:51;;;;;;;8.13;7.13;;;;;;;9.80;100.00;98849.16;5014715;28;20203;-51
2022/05/05 02:23:18;;;;;;;8.73;7.60;;;;;;;9.85;100.00;98852.97;5014498;28;20279;-51
2022/05/05 02:25:45;;;;;;;10.37;7.27;;;;;;;9.87;100.00;98851.03;5014102;28;20289;-51
2022/05/05 02:28:13;;;;;;;10.00;7.50;;;;;;;9.98;100.00;98854.44;5014490;28;20219;-51
2022/05/05 02:30:41;;;;;;;8.73;7.17;;;;;;;10.01;100.00;98851.56;5014284;28;20197;-51
2022/05/05 02:33:08;;;;;;;9.97;7.33;;;;;;;10.03;100.00;98862.66;5014080;28;20219;-51
2022/05/05 02:35:35;;;;;;;9.40;7.50;;;;;;;10.06;100.00;98858.97;5013900;28;20263;-51
2022/05/05 02:40:47;;;;;;;8.93;7.20;;;;;;;10.06;100.00;98854.56;5014320;28;20195;-52
2022/05/05 02:43:16;;;;;;;10.73;6.60;;;;;;;10.02;100.00;98851.44;4996254;28;20200;-53
2022/05/05 02:45:43;;;;;;;10.33;7.20;;;;;;;9.92;100.00;98850.63;5013859;28;20208;-52
2022/05/05 02:48:10;;;;;;;7.80;6.93;;;;;;;9.82;100.00;98847.22;5014106;28;20274;-52
2022/05/05 02:50:38;;;;;;;11.33;7.20;;;;;;;9.79;100.00;98852.72;5014024;28;20195;-52
2022/05/05 02:54:47;;;;;;;8.37;7.07;;;;;;;9.74;100.00;98859.16;4996293;28;20224;-51
2022/05/05 02:55:51;;;;;;;8.53;7.27;;;;;;;9.72;100.00;98860.25;5013486;28;20215;-51
2022/05/05 02:58:20;;;;;;;8.63;6.77;;;;;;;9.69;100.00;98856.16;5013778;28;20644;-53
2022/05/05 03:00:47;;;;;;;8.80;7.87;;;;;;;9.62;100.00;98854.22;4996203;28;20211;-51
2022/05/05 03:03:14;;;;;;;9.13;7.77;;;;;;;9.61;100.00;98853.41;5013743;28;20258;-51
2022/05/05 03:05:42;;;;;;;9.97;7.43;;;;;;;9.52;100.00;98857.69;5013451;28;20284;-53
2022/05/05 03:08:09;;;;;;;9.63;7.70;;;;;;;9.47;100.00;98854.69;5013631;28;20307;-53
2022/05/05 03:10:36;;;;;;;12.20;7.67;;;;;;;9.48;100.00;98845.91;5012549;28;20199;-53
2022/05/05 03:13:04;;;;;;;10.30;7.30;;;;;;;9.57;100.00;98846.84;5013643;28;20299;-52
2022/05/05 03:15:32;;;;;;;10.23;7.50;;;;;;;9.58;100.00;98851.91;5013285;28;20211;-51
2022/05/05 03:17:59;;;;;;;9.30;7.77;;;;;;;9.59;100.00;98853.53;5013010;28;20241;-53
2022/05/05 03:20:26;;;;;;;8.97;7.70;;;;;;;9.60;100.00;98857.00;5009947;28;20266;-53
2022/05/05 03:22:54;;;;;;;8.77;7.60;;;;;;;9.65;100.00;98856.56;4995615;28;20258;-51
2022/05/05 03:25:21;;;;;;;8.93;7.73;;;;;;;9.63;100.00;98850.66;5013057;28;20746;-51
2022/05/05 03:27:49;;;;;;;11.63;8.33;;;;;;;9.62;100.00;98864.66;5013220;28;20205;-51
2022/05/05 03:30:16;;;;;;;10.03;7.83;;;;;;;9.62;100.00;98857.66;5013198;28;20202;-51
2022/05/05 03:32:45;;;;;;;9.17;7.30;;;;;;;9.65;100.00;98864.38;5012997;28;20203;-51
2022/05/05 03:35:12;;;;;;;8.67;7.73;;;;;;;9.69;100.00;98863.97;4995020;28;20224;-52
2022/05/05 03:37:39;;;;;;;8.93;7.30;;;;;;;9.74;100.00;98860.94;5013199;28;20202;-53
2022/05/05 03:40:07;;;;;;;10.70;7.47;;;;;;;9.74;100.00;98856.56;4995480;28;20199;-51
2022/05/05 03:42:35;;;;;;;8.70;7.47;;;;;;;9.78;100.00;98871.94;5013242;28;20238;-52
2022/05/05 03:45:02;;;;;;;9.70;8.70;;;;;;;9.80;100.00;98863.00;5012550;28;20215;-51
2022/05/05 03:47:29;;;;;;;9.97;7.83;;;;;;;9.85;100.00;98870.41;5012958;28;20195;-51
2022/05/05 03:49:58;;;;;;;9.90;8.07;;;;;;;9.83;100.00;98869.72;5012896;28;20671;-52
2022/05/05 03:52:25;;;;;;;9.87;7.20;;;;;;;9.83;100.00;98869.72;5004978;28;20223;-52
2022/05/05 03:54:52;;;;;;;10.50;7.67;;;;;;;9.82;100.00;98865.47;5012553;28;20310;-52
2022/05/05 03:57:19;;;;;;;8.97;7.20;;;;;;;9.83;100.00;98869.72;5012664;28;20192;-51
2022/05/05 03:59:46;;;;;;;10.13;7.40;;;;;;;9.86;100.00;98867.66;5012915;28;20196;-52
2022/05/05 04:02:13;;;;;;;8.80;7.73;;;;;;;9.92;100.00;98881.09;4995016;28;20200;-52
2022/05/05 04:04:40;;;;;;;10.63;7.93;;;;;;;9.98;100.00;98880.53;5012214;28;20857;-51
2022/05/05 04:07:09;;;;;;;8.53;7.63;;;;;;;10.03;100.00;98884.38;5012746;28;20199;-51
2022/05/05 04:09:54;;;;;;;9.00;7.37;;;;;;;10.11;100.00;98890.63;5013001;28;20208;-52
2022/05/05 04:12:21;;;;;;;13.03;8.13;;;;;;;10.17;100.00;98883.09;5013057;28;20200;-53
2022/05/05 04:14:49;;;;;;;9.40;7.20;;;;;;;10.26;100.00;98877.97;5013283;28;20250;-53
2022/05/05 04:17:16;;;;;;;10.50;7.60;;;;;;;10.28;100.00;98884.69;5013493;28;20266;-53
2022/05/05 04:19:43;;;;;;;7.90;6.70;;;;;;;10.28;100.00;98887.28;5013160;28;20210;-51
2022/05/05 04:22:12;;;;;;;9.37;7.03;;;;;;;10.31;100.00;98894.03;4995205;28;20196;-51
2022/05/05 04:24:39;;;;;;;8.00;7.20;;;;;;;10.34;100.00;98901.56;5012781;28;20215;-51
2022/05/05 04:27:07;;;;;;;10.20;7.07;;;;;;;10.39;100.00;98899.41;5012901;28;20186;-53
2022/05/05 04:29:34;;;;;;;9.60;7.10;;;;;;;10.44;100.00;98894.56;5013294;28;20538;-52
2022/05/05 04:32:01;;;;;;;9.53;7.03;;;;;;;10.48;100.00;98903.75;4995062;28;20636;-52
2022/05/05 04:34:29;;;;;;;8.33;7.27;;;;;;;10.51;100.00;98907.03;5012277;28;20216;-53
2022/05/05 04:36:56;;;;;;;8.63;7.20;;;;;;;10.57;100.00;98907.28;4994994;28;20235;-52
2022/05/05 04:39:24;;;;;;;10.43;7.30;;;;;;;10.71;100.00;98913.00;5013011;28;20211;-51
2022/05/05 04:41:51;;;;;;;10.33;7.33;;;;;;;10.75;100.00;98904.72;4994898;28;20671;-51
2022/05/05 04:44:19;;;;;;;7.80;6.20;;;;;;;10.86;100.00;98908.94;5011914;28;20209;-52
2022/05/05 04:46:46;;;;;;;7.70;6.90;;;;;;;10.93;100.00;98914.38;5012732;28;20200;-51
2022/05/05 04:49:13;;;;;;;8.33;6.90;;;;;;;10.99;100.00;98919.03;5012810;28;20181;-51
2022/05/05 04:51:40;;;;;;;12.50;9.97;;;;;;;11.06;100.00;98919.28;5010375;28;20224;-52
2022/05/05 04:54:08;;;;;;;14.40;12.13;;;;;;;11.09;100.00;98924.22;5011964;28;20208;-52
2022/05/05 04:56:36;;;;;;;61.53;41.67;;;;;;;11.14;100.00;98931.59;5012357;28;20189;-51
2022/05/05 04:59:03;;;;;;;38.83;30.38;;;;;;;11.20;99.24;98933.63;5011970;28;20938;-51
2022/05/05 05:01:31;;;;;;;21.33;16.77;;;;;;;11.26;99.62;98929.59;5012459;28;20189;-53
2022/05/05 05:03:58;;;;;;;17.30;12.53;;;;;;;11.28;100.00;98933.72;5012036;28;20211;-51
2022/05/05 05:06:25;;;;;;;14.60;11.50;;;;;;;11.31;100.00;98938.66;5012370;28;20553;-51
2022/05/05 05:08:53;;;;;;;15.93;10.17;;;;;;;11.34;100.00;98943.56;5012373;28;20197;-51
2022/05/05 05:11:20;;;;;;;10.60;8.97;;;;;;;11.33;100.00;98944.53;5012283;28;20200;-51
2022/05/05 05:13:49;;;;;;;9.97;8.07;;;;;;;11.34;99.72;98940.97;5011822;28;20212;-51
2022/05/05 05:16:16;;;;;;;11.33;8.40;;;;;;;11.32;100.00;98947.28;4994554;28;20691;-51
2022/05/05 05:18:43;;;;;;;9.10;8.00;;;;;;;11.33;100.00;98952.38;5012092;28;20197;-50
2022/05/05 05:21:11;;;;;;;10.03;7.83;;;;;;;11.30;100.00;98950.06;5012176;28;20193;-51
2022/05/05 05:23:38;;;;;;;9.63;8.60;;;;;;;11.29;100.00;98955.44;5011794;28;20215;-51
2022/05/05 05:26:05;;;;;;;15.23;10.27;;;;;;;11.30;100.00;98957.91;4994423;28;20205;-54
2022/05/05 05:28:32;;;;;;;13.70;10.60;;;;;;;11.35;100.00;98952.22;5012081;28;20653;-50
2022/05/05 05:31:01;;;;;;;15.33;10.60;;;;;;;11.37;100.00;98953.75;5012409;28;20408;-52
2022/05/05 05:33:28;;;;;;;16.23;10.83;;;;;;;11.39;100.00;98968.44;5013868;28;20208;-51
2022/05/05 05:35:55;;;;;;;13.83;10.70;;;;;;;11.39;100.00;98965.84;5011278;28;20218;-51
2022/05/05 05:38:22;;;;;;;14.73;11.17;;;;;;;11.41;100.00;98966.50;4998375;28;20243;-51
2022/05/05 05:40:50;;;;;;;13.37;10.87;;;;;;;11.45;100.00;98965.25;5016014;28;20563;-51
2022/05/05 05:43:17;;;;;;;13.40;11.20;;;;;;;11.43;100.00;98972.41;5015870;28;20196;-51
2022/05/05 05:45:44;;;;;;;12.07;10.60;;;;;;;11.47;100.00;98968.53;5015403;28;20228;-51
2022/05/05 05:48:13;;;;;;;12.60;11.00;;;;;;;11.49;100.00;98980.47;5015859;28;20217;-52
2022/05/05 05:50:40;;;;;;;15.43;11.50;;;;;;;11.50;100.00;98973.47;5015561;28;20240;-51
2022/05/05 05:53:08;;;;;;;15.63;11.67;;;;;;;11.48;100.00;98975.41;4997913;28;20425;-51
2022/05/05 05:55:36;;;;;;;16.10;11.87;;;;;;;11.48;100.00;98973.59;5015529;28;20351;-51
2022/05/05 05:58:04;;;;;;;14.27;11.67;;;;;;;11.49;100.00;98983.09;4997891;28;20198;-51
2022/05/05 06:00:32;;;;;;;14.00;12.07;;;;;;;11.47;100.00;98981.59;5015591;28;20675;-50
2022/05/05 06:05:46;;;;;;;15.43;12.23;;;;;;;11.51;100.00;98977.72;5015204;28;20568;-50
2022/05/05 06:08:13;;;;;;;13.63;11.03;;;;;;;11.54;100.00;98977.44;5015412;28;20199;-50
2022/05/05 06:10:41;;;;;;;13.93;10.87;;;;;;;11.58;100.00;98983.16;5020742;28;20296;-50
2022/05/05 06:13:09;;;;;;;14.30;11.60;;;;;;;11.56;100.00;98988.56;4999552;28;20226;-50
2022/05/05 06:15:36;;;;;;;16.30;11.60;;;;;;;11.58;100.00;98981.41;5014966;28;20261;-50
2022/05/05 06:18:04;;;;;;;16.03;11.80;;;;;;;11.57;100.00;98990.22;5015110;28;20233;-50
2022/05/05 06:20:32;;;;;;;17.80;13.03;;;;;;;11.55;100.00;98986.91;4997689;28;20289;-50
2022/05/05 06:23:01;;;;;;;14.87;10.83;;;;;;;11.56;100.00;98987.72;5015130;28;20196;-50
2022/05/05 06:25:28;;;;;;;12.87;10.23;;;;;;;11.60;100.00;98994.31;5014777;28;20205;-51
2022/05/05 06:27:57;;;;;;;15.10;10.90;;;;;;;11.58;100.00;98993.63;5015021;28;20259;-50
2022/05/05 06:30:25;;;;;;;14.13;10.47;;;;;;;11.62;100.00;98998.44;5007134;28;20215;-50
2022/05/05 06:32:52;;;;;;;15.20;10.33;;;;;;;11.70;100.00;99002.91;5015088;28;20214;-50
2022/05/05 06:35:19;;;;;;;13.03;10.40;;;;;;;11.79;100.00;99009.03;5014807;28;20217;-50
2022/05/05 06:37:50;;;;;;;14.33;11.07;;;;;;;11.86;100.00;99004.84;5015053;28;20294;-50
2022/05/05 06:40:19;;;;;;;15.27;10.87;;;;;;;11.93;100.00;99007.69;5015130;28;20192;-50
2022/05/05 06:42:48;;;;;;;17.13;11.40;;;;;;;12.00;100.00;99006.16;5015216;28;20535;-50
2022/05/05 06:45:15;;;;;;;18.27;11.67;;;;;;;12.05;100.00;99014.38;5014488;28;20220;-51
2022/05/05 06:47:43;;;;;;;11.47;10.17;;;;;;;12.06;100.00;99015.19;5014941;28;20351;-50
2022/05/05 06:50:11;;;;;;;15.83;11.47;;;;;;;12.15;100.00;99009.03;5014869;28;20251;-49
2022/05/05 06:52:38;;;;;;;15.33;11.37;;;;;;;12.18;100.00;99013.16;5014750;28;20209;-52
2022/05/05 06:55:07;;;;;;;13.30;11.20;;;;;;;12.16;99.65;99020.34;5014403;28;20211;-50
2022/05/05 06:57:36;;;;;;;15.83;10.93;;;;;;;12.09;100.00;99020.94;4997027;28;20676;-50
2022/05/05 07:00:04;;;;;;;13.57;10.47;;;;;;;12.09;99.79;99022.72;4997123;28;20714;-51
2022/05/05 07:02:31;;;;;;;15.27;11.03;;;;;;;12.06;98.63;99026.47;5014535;28;20194;-50
2022/05/05 07:07:43;;;;;;;15.43;11.43;;;;;;;12.02;96.22;99021.69;5014760;28;20183;-50
2022/05/05 07:12:57;;;;;;;16.63;10.40;;;;;;;12.10;95.69;99033.06;5014386;28;20201;-50
2022/05/05 07:15:24;;;;;;;12.50;9.60;;;;;;;12.07;93.00;99030.75;5014051;28;20206;-52
2022/05/05 07:17:51;;;;;;;15.30;10.33;;;;;;;12.04;93.91;99035.44;5014265;28;20212;-50
2022/05/05 07:20:18;;;;;;;15.80;10.57;;;;;;;12.02;94.01;99038.22;5014071;28;20194;-50
2022/05/05 07:22:44;;;;;;;14.40;10.47;;;;;;;12.01;94.29;99041.81;5014198;28;20189;-50
2022/05/05 07:25:12;;;;;;;17.40;10.40;;;;;;;12.02;94.47;99035.59;4996228;28;20218;-50
2022/05/05 07:27:40;;;;;;;16.47;11.70;;;;;;;11.95;95.18;99035.34;5014396;28;20188;-50
2022/05/05 07:30:10;;;;;;;18.70;11.50;;;;;;;11.95;96.05;99048.41;5014287;28;20188;-51
2022/05/05 07:32:37;;;;;;;17.10;12.17;;;;;;;11.91;97.60;99041.84;5013742;28;20194;-52
2022/05/05 07:35:05;;;;;;;20.20;11.77;;;;;;;11.94;98.83;99044.16;5013863;28;20202;-52
2022/05/05 07:37:33;;;;;;;18.03;11.93;;;;;;;11.86;98.41;99048.50;5014312;28;20248;-50
2022/05/05 07:39:59;;;;;;;17.90;11.20;;;;;;;11.84;98.33;99055.66;5013976;28;20186;-50
2022/05/05 07:42:27;;;;;;;17.90;12.60;;;;;;;11.76;98.26;99054.63;5013799;28;20191;-50
2022/05/05 07:44:54;;;;;;;17.87;11.80;;;;;;;11.83;100.00;99060.06;4995868;28;20635;-50
2022/05/05 07:47:23;;;;;;;18.80;12.53;;;;;;;11.87;100.00;99056.19;4996139;28;20723;-50
2022/05/05 07:49:50;;;;;;;15.10;11.27;;;;;;;11.92;100.00;99061.00;5013653;28;20224;-50
2022/05/05 07:52:18;;;;;;;16.80;11.53;;;;;;;12.00;99.69;99062.88;5013934;28;20198;-50
2022/05/05 07:55:04;;;;;;;14.87;11.30;;;;;;;12.00;97.35;99066.31;5013134;28;20294;-50
2022/05/05 07:57:32;;;;;;;15.53;12.23;;;;;;;11.95;96.44;99061.50;5013139;28;20185;-50
2022/05/05 07:59:58;;;;;;;16.27;11.77;;;;;;;12.00;98.40;99060.25;5013300;28;20184;-50
2022/05/05 08:02:27;;;;;;;17.90;12.00;;;;;;;12.08;99.63;99068.19;4995730;28;20264;-50
2022/05/05 08:04:55;;;;;;;16.00;11.27;;;;;;;12.18;98.70;99068.13;5013098;28;20209;-51
2022/05/05 08:07:22;;;;;;;15.80;11.10;;;;;;;12.29;97.45;99073.09;5011782;28;20228;-50
2022/05/05 08:09:49;;;;;;;18.13;11.53;;;;;;;12.33;95.84;99068.41;5020636;28;20196;-50
2022/05/05 08:12:16;;;;;;;16.07;11.97;;;;;;;12.39;96.73;99073.84;4998803;28;20201;-50
2022/05/05 08:14:43;;;;;;;14.03;10.57;;;;;;;12.46;95.83;99078.47;5023359;28;20231;-50
2022/05/05 08:17:10;;;;;;;19.13;11.37;;;;;;;12.52;94.80;99070.00;5019387;28;20210;-50
2022/05/05 08:19:38;;;;;;;13.70;10.47;;;;;;;12.60;92.83;99074.50;5003749;28;20673;-50
2022/05/05 08:22:05;;;;;;;14.03;10.90;;;;;;;12.52;92.62;99072.63;5021982;28;20235;-50
2022/05/05 08:30:18;;;;;;;11.43;9.30;;;;;;;12.92;90.53;99075.66;4916013;29;20204;-50
2022/05/05 08:32:45;;;;;;;15.57;10.63;;;;;;;12.90;91.57;99078.47;4978399;28;20637;-50
2022/05/05 08:35:14;;;;;;;14.37;11.03;;;;;;;12.96;91.61;99084.88;5011891;28;20632;-50
2022/05/05 08:37:41;;;;;;;14.47;11.00;;;;;;;13.05;94.45;99089.19;5012704;28;20182;-50
2022/05/05 08:40:11;;;;;;;14.10;10.27;;;;;;;13.10;92.28;99086.91;5012795;28;20193;-50
2022/05/05 08:42:38;;;;;;;14.07;10.00;;;;;;;12.95;89.87;99089.31;5012756;28;20190;-50
2022/05/05 08:45:07;;;;;;;15.77;10.63;;;;;;;13.03;92.08;99095.56;5012392;28;20777;-50
2022/05/05 08:47:35;;;;;;;15.13;11.07;;;;;;;13.19;94.98;99095.66;5012559;28;20190;-50
2022/05/05 08:50:04;;;;;;;12.70;10.40;;;;;;;13.35;93.17;99099.31;5013145;28;20202;-50
2022/05/05 08:52:36;;;;;;;15.03;10.67;;;;;;;13.48;92.29;99093.69;5012726;28;20261;-50
2022/05/05 08:55:04;;;;;;;16.00;10.13;;;;;;;13.56;94.29;99091.91;4994585;28;20222;-50
2022/05/05 08:57:31;;;;;;;14.13;10.67;;;;;;;13.68;91.82;99095.06;5011938;28;20194;-50
2022/05/05 08:59:58;;;;;;;14.93;9.80;;;;;;;13.75;88.25;99095.25;5012619;28;20198;-50
2022/05/05 09:02:26;;;;;;;13.27;9.73;;;;;;;13.75;86.36;99086.56;4994629;28;20201;-50
2022/05/05 09:04:52;;;;;;;12.67;10.37;;;;;;;13.81;88.20;99091.97;4994369;28;20249;-50
2022/05/05 09:07:19;;;;;;;14.80;9.33;;;;;;;13.72;86.30;99090.31;5011688;28;20186;-50
2022/05/05 09:09:49;;;;;;;13.23;9.67;;;;;;;13.83;91.55;99083.94;5012619;28;20187;-52
2022/05/05 09:12:17;;;;;;;14.00;9.60;;;;;;;13.95;90.54;99090.53;4994811;28;20237;-52
2022/05/05 09:14:46;;;;;;;13.43;9.63;;;;;;;13.89;86.06;99099.03;5012128;28;20234;-50
2022/05/05 09:17:16;;;;;;;16.20;10.07;;;;;;;13.83;85.28;99092.63;4994717;28;20211;-52
2022/05/05 09:19:44;;;;;;;14.47;11.73;;;;;;;13.72;87.41;99093.78;5012384;28;20194;-50
2022/05/05 09:22:12;;;;;;;14.30;10.43;;;;;;;13.75;89.18;99103.09;5012302;28;20214;-52
2022/05/05 09:24:43;;;;;;;15.70;11.33;;;;;;;13.77;91.24;99100.34;4993871;28;20225;-51
2022/05/05 09:27:20;;;;;;;15.87;12.00;;;;;;;13.72;92.91;99100.81;4994579;28;20532;-52
2022/05/05 09:30:09;;;;;;;18.27;13.00;;;;;;;13.76;93.08;99106.56;4994289;28;20281;-52
2022/05/05 09:32:37;;;;;;;16.10;12.07;;;;;;;13.91;92.83;99107.56;5012456;28;20289;-52
2022/05/05 09:35:08;;;;;;;17.73;10.37;;;;;;;13.95;87.76;99110.72;4994080;28;20590;-50
2022/05/05 09:37:36;;;;;;;18.07;11.83;;;;;;;13.79;85.87;99117.56;5012098;28;20191;-50
2022/05/05 09:40:06;;;;;;;13.47;10.23;;;;;;;13.80;85.71;99115.72;5011777;28;20686;-52
2022/05/05 09:42:36;;;;;;;14.73;10.47;;;;;;;13.94;88.74;99106.44;5012177;28;20194;-50
2022/05/05 09:45:16;;;;;;;418.20;228.67;;;;;;;13.76;87.61;99110.00;5011926;28;20212;-50
2022/05/05 09:47:44;;;;;;;29.77;19.10;;;;;;;14.08;87.50;99118.09;5012599;28;20615;-51
2022/05/05 09:50:12;;;;;;;12.93;10.83;;;;;;;14.05;87.07;99121.06;5012329;28;20277;-51
2022/05/05 09:58:16;;;;;;;19.27;14.73;;;;;;;13.50;87.10;99134.50;5011823;28;20435;-50
2022/05/05 10:00:46;;;;;;;16.43;13.60;;;;;;;13.40;87.47;99134.59;5011784;28;20443;-50
2022/05/05 10:06:20;;;;;;;16.77;13.07;;;;;;;13.62;86.20;99132.44;4994232;28;20660;-50
2022/05/05 10:08:51;;;;;;;19.30;13.00;;;;;;;13.59;85.26;99137.97;4993940;28;20599;-50
2022/05/05 10:11:19;;;;;;;18.00;13.90;;;;;;;13.71;86.75;99130.63;5011931;28;20187;-51
2022/05/05 10:13:49;;;;;;;17.77;12.83;;;;;;;14.01;85.45;99128.44;5011321;28;20214;-50
2022/05/05 10:16:16;;;;;;;16.73;12.43;;;;;;;14.63;82.32;99127.16;4994053;28;20198;-50
2022/05/05 10:18:43;;;;;;;17.70;11.57;;;;;;;15.10;78.98;99124.84;5012186;28;20685;-50
2022/05/05 10:21:20;;;;;;;16.97;12.17;;;;;;;15.17;78.27;99131.91;5014941;28;20191;-51
2022/05/05 10:23:56;;;;;;;16.53;12.67;;;;;;;15.35;79.14;99131.69;5014870;28;20668;-50
2022/05/05 10:26:25;;;;;;;15.03;11.37;;;;;;;15.71;75.38;99132.19;5015165;28;20197;-50
2022/05/05 10:28:53;;;;;;;17.07;12.27;;;;;;;14.96;76.90;99129.81;5015183;28;20270;-51
2022/05/05 10:31:46;;;;;;;15.83;12.07;;;;;;;15.56;75.03;99129.47;5015352;28;20529;-50
2022/05/05 10:34:19;;;;;;;15.53;11.57;;;;;;;14.59;76.76;99128.47;4996009;28;20231;-50
2022/05/05 10:37:02;;;;;;;16.63;12.13;;;;;;;15.25;76.46;99123.19;5015155;28;20177;-51
2022/05/05 10:40:01;;;;;;;16.60;11.90;;;;;;;14.72;77.31;99125.41;5015248;28;20179;-50
2022/05/05 10:42:35;;;;;;;16.43;11.73;;;;;;;14.87;76.21;99125.53;5014894;28;20194;-51
2022/05/05 10:45:12;;;;;;;16.43;12.23;;;;;;;15.05;76.96;99114.81;5014568;28;20250;-50
2022/05/05 10:48:18;;;;;;;15.93;12.27;;;;;;;15.42;74.25;99123.09;5014916;28;20559;-51
2022/05/05 10:50:53;;;;;;;15.47;11.87;;;;;;;15.48;75.42;99123.25;4994748;28;20197;-50
2022/05/05 10:53:41;;;;;;;13.47;12.00;;;;;;;15.51;72.17;99127.34;5016056;28;20218;-50
2022/05/05 10:56:29;;;;;;;15.43;11.77;;;;;;;15.33;73.85;99124.94;5008739;28;20631;-50
2022/05/05 10:59:06;;;;;;;14.67;11.30;;;;;;;15.88;73.24;99127.72;4997454;28;20214;-51
2022/05/05 11:02:04;;;;;;;14.57;12.37;;;;;;;14.96;76.55;99119.28;5007916;28;20207;-52
2022/05/05 11:04:33;;;;;;;17.90;12.80;;;;;;;14.90;77.26;99120.75;5014613;28;20231;-50
2022/05/05 11:07:36;;;;;;;19.23;12.87;;;;;;;14.13;81.93;99119.28;5014774;28;20191;-50
2022/05/05 11:10:06;;;;;;;20.00;13.30;;;;;;;14.40;78.94;99117.31;5014851;28;20203;-51
2022/05/05 11:12:36;;;;;;;16.50;12.87;;;;;;;14.69;79.55;99121.28;5014967;28;20273;-51
2022/05/05 11:23:42;;;;;;;18.37;12.80;;;;;;;14.63;78.00;99115.84;5011902;28;20722;-50
2022/05/05 11:26:09;;;;;;;21.80;13.93;;;;;;;14.50;79.48;99125.06;5008862;28;20203;-50
2022/05/05 11:28:37;;;;;;;21.03;16.47;;;;;;;14.99;79.29;99120.75;5013004;28;20188;-51
2022/05/05 11:31:03;;;;;;;17.03;13.00;;;;;;;15.60;73.31;99125.50;5012017;28;20270;-50
2022/05/05 11:33:32;;;;;;;17.43;14.03;;;;;;;15.09;76.33;99123.22;5013002;28;20214;-50
2022/05/05 11:36:02;;;;;;;20.57;15.50;;;;;;;15.63;74.98;99127.81;5008902;28;20210;-50
2022/05/05 11:38:29;;;;;;;19.30;13.30;;;;;;;15.95;73.77;99123.38;5012993;28;20214;-50
2022/05/05 11:41:01;;;;;;;19.40;15.23;;;;;;;15.86;73.84;99121.78;5013252;28;20192;-50
2022/05/05 11:46:14;;;;;;;21.00;15.83;;;;;;;16.25;73.46;99131.44;5012533;28;20213;-51
2022/05/05 11:48:44;;;;;;;21.67;16.40;;;;;;;16.29;73.44;99129.28;5013201;28;20188;-51
2022/05/05 11:51:11;;;;;;;20.80;15.63;;;;;;;16.46;71.65;99124.69;4995091;28;20192;-51
2022/05/05 11:53:38;;;;;;;20.63;15.60;;;;;;;16.30;70.27;99126.44;5012978;28;20184;-51
2022/05/05 11:56:13;;;;;;;18.10;14.90;;;;;;;16.20;71.75;99125.88;5012750;28;20212;-51
2022/05/05 12:01:40;;;;;;;18.10;15.37;;;;;;;16.07;71.89;99122.00;5012622;28;20687;-50
2022/05/05 12:04:10;;;;;;;20.13;16.03;;;;;;;16.23;72.04;99120.25;5012521;28;20607;-50
2022/05/05 12:06:39;;;;;;;18.67;14.73;;;;;;;16.55;72.13;99121.00;5012839;28;20230;-51
2022/05/05 12:09:08;;;;;;;19.07;14.73;;;;;;;16.56;72.46;99125.28;5012705;28;20188;-50
2022/05/05 12:11:36;;;;;;;18.57;13.70;;;;;;;16.89;70.79;99118.88;4995166;28;20235;-50
2022/05/05 12:14:06;;;;;;;18.50;14.83;;;;;;;16.91;69.65;99122.16;4994453;28;20229;-51
2022/05/05 12:16:35;;;;;;;20.00;14.17;;;;;;;16.80;68.58;99126.88;5012752;28;20569;-51
2022/05/05 12:19:12;;;;;;;18.63;14.00;;;;;;;16.73;70.42;99115.41;5012489;28;20207;-51
2022/05/05 12:21:50;;;;;;;17.23;14.00;;;;;;;16.73;70.45;99122.50;5012565;28;20230;-51